Aviation Digital Data Service (ADDS)

Output produced by METARs form (2218 UTC 24 March 2019)
found at http://www.aviationweather.gov/metar/data/
 
METAR text: ZGGG 242200Z VRB01MPS 4000 SHRA FEW008 FEW030CB BKN030 14/12 Q1018 BECMG AT2230 NSW
Conditions at: ZGGG (GUANGZHOU/BAIYUN, CN) observed 2200 UTC 24 March 2019
Temperature: 14.0°C (57°F)
Dewpoint: 12.0°C (54°F) [RH = 88%]
Pressure (altimeter): 30.06 inches Hg (1018.0 mb)
Winds: variable direction winds at 2 MPH (2 knots; 1.0 m/s)
Visibility: 2.49 miles (4.01 km)
Ceiling: 3000 feet AGL
Clouds: few clouds at 800 feet AGL
few clouds at 3000 feet AGL
broken clouds at 3000 feet AGL
Weather: SHRA  (rain showers)

METAR text: ZGGG 242130Z 02003MPS 9999 -SHRA FEW008 OVC026 14/12 Q1017 TEMPO SHRA
Conditions at: ZGGG (GUANGZHOU/BAIYUN, CN) observed 2130 UTC 24 March 2019
Temperature: 14.0°C (57°F)
Dewpoint: 12.0°C (54°F) [RH = 88%]
Pressure (altimeter): 30.03 inches Hg (1017.0 mb)
Winds: from the NNE (20 degrees) at 7 MPH (6 knots; 3.1 m/s)
Visibility: 6 or more miles (10+ km)
Ceiling: 2600 feet AGL
Clouds: few clouds at 800 feet AGL
overcast cloud deck at 2600 feet AGL
Weather: -SHRA  (light rain showers)

METAR text: ZGGG 242100Z 36003MPS 8000 -SHRA SCT008 OVC023 14/12 Q1017 TEMPO SHRA
Conditions at: ZGGG (GUANGZHOU/BAIYUN, CN) observed 2100 UTC 24 March 2019
Temperature: 14.0°C (57°F)
Dewpoint: 12.0°C (54°F) [RH = 88%]
Pressure (altimeter): 30.03 inches Hg (1017.0 mb)
Winds: from the N (360 degrees) at 7 MPH (6 knots; 3.1 m/s)
Visibility: 5 miles ( 8 km)
Ceiling: 2300 feet AGL
Clouds: scattered clouds at 800 feet AGL
overcast cloud deck at 2300 feet AGL
Weather: -SHRA  (light rain showers)

METAR text: ZGGG 242030Z 35006MPS 7000 -SHRA SCT008 OVC023 14/12 Q1017 NOSIG
Conditions at: ZGGG (GUANGZHOU/BAIYUN, CN) observed 2030 UTC 24 March 2019
Temperature: 14.0°C (57°F)
Dewpoint: 12.0°C (54°F) [RH = 88%]
Pressure (altimeter): 30.03 inches Hg (1017.0 mb)
Winds: from the N (350 degrees) at 14 MPH (12 knots; 6.2 m/s)
Visibility: 4 miles ( 7 km)
Ceiling: 2300 feet AGL
Clouds: scattered clouds at 800 feet AGL
overcast cloud deck at 2300 feet AGL
Weather: -SHRA  (light rain showers)

METAR text: ZGGG 242000Z 35004MPS 8000 -SHRA SCT009 OVC020 14/12 Q1017 NOSIG
Conditions at: ZGGG (GUANGZHOU/BAIYUN, CN) observed 2000 UTC 24 March 2019
Temperature: 14.0°C (57°F)
Dewpoint: 12.0°C (54°F) [RH = 88%]
Pressure (altimeter): 30.03 inches Hg (1017.0 mb)
Winds: from the N (350 degrees) at 9 MPH (8 knots; 4.1 m/s)
Visibility: 5 miles ( 8 km)
Ceiling: 2000 feet AGL
Clouds: scattered clouds at 900 feet AGL
overcast cloud deck at 2000 feet AGL
Weather: -SHRA  (light rain showers)

METAR text: ZGGG 241930Z 34003MPS 8000 -SHRA SCT009 OVC020 14/12 Q1016 NOSIG
Conditions at: ZGGG (GUANGZHOU/BAIYUN, CN) observed 1930 UTC 24 March 2019
Temperature: 14.0°C (57°F)
Dewpoint: 12.0°C (54°F) [RH = 88%]
Pressure (altimeter): 30.00 inches Hg (1016.0 mb)
Winds: from the NNW (340 degrees) at 7 MPH (6 knots; 3.1 m/s)
Visibility: 5 miles ( 8 km)
Ceiling: 2000 feet AGL
Clouds: scattered clouds at 900 feet AGL
overcast cloud deck at 2000 feet AGL
Weather: -SHRA  (light rain showers)

METAR text: ZGGG 241900Z 34002MPS 310V010 8000 -SHRA SCT009 OVC020 14/12 Q1016 NOSIG
Conditions at: ZGGG (GUANGZHOU/BAIYUN, CN) observed 1900 UTC 24 March 2019
Temperature: 14.0°C (57°F)
Dewpoint: 12.0°C (54°F) [RH = 88%]
Pressure (altimeter): 30.00 inches Hg (1016.0 mb)
Winds: from the NNW (340 degrees) at 5 MPH (4 knots; 2.1 m/s)
Visibility: 5 miles ( 8 km)
Ceiling: 2000 feet AGL
Clouds: scattered clouds at 900 feet AGL
overcast cloud deck at 2000 feet AGL
Weather: -SHRA  (light rain showers)

METAR text: ZGGG 241830Z 34003MPS 8000 -SHRA SCT006 OVC020 14/12 Q1017 NOSIG
Conditions at: ZGGG (GUANGZHOU/BAIYUN, CN) observed 1830 UTC 24 March 2019
Temperature: 14.0°C (57°F)
Dewpoint: 12.0°C (54°F) [RH = 88%]
Pressure (altimeter): 30.03 inches Hg (1017.0 mb)
Winds: from the NNW (340 degrees) at 7 MPH (6 knots; 3.1 m/s)
Visibility: 5 miles ( 8 km)
Ceiling: 2000 feet AGL
Clouds: scattered clouds at 600 feet AGL
overcast cloud deck at 2000 feet AGL
Weather: -SHRA  (light rain showers)

METAR text: ZGGG 241800Z 31003MPS 4500 -SHRA BR SCT006 OVC020 14/12 Q1017 NOSIG
Conditions at: ZGGG (GUANGZHOU/BAIYUN, CN) observed 1800 UTC 24 March 2019
Temperature: 14.0°C (57°F)
Dewpoint: 12.0°C (54°F) [RH = 88%]
Pressure (altimeter): 30.03 inches Hg (1017.0 mb)
Winds: from the NW (310 degrees) at 7 MPH (6 knots; 3.1 m/s)
Visibility: 2.80 miles (4.51 km)
Ceiling: 2000 feet AGL
Clouds: scattered clouds at 600 feet AGL
overcast cloud deck at 2000 feet AGL
Weather: -SHRA BR  (light rain showers, mist)

METAR text: ZGGG 241730Z VRB01MPS 4500 -SHRA BR SCT006 OVC020 14/12 Q1017 BECMG AT1740 2000 TSRA
Conditions at: ZGGG (GUANGZHOU/BAIYUN, CN) observed 1730 UTC 24 March 2019
Temperature: 14.0°C (57°F)
Dewpoint: 12.0°C (54°F) [RH = 88%]
Pressure (altimeter): 30.03 inches Hg (1017.0 mb)
Winds: variable direction winds at 2 MPH (2 knots; 1.0 m/s)
Visibility: 2.80 miles (4.51 km)
Ceiling: 2000 feet AGL
Clouds: scattered clouds at 600 feet AGL
overcast cloud deck at 2000 feet AGL
Weather: -SHRA BR  (light rain showers, mist)

METAR text: ZGGG 241700Z 35003MPS 320V020 4500 BR SCT006 OVC020 15/12 Q1017 BECMG AT1720 2000 TSRA
Conditions at: ZGGG (GUANGZHOU/BAIYUN, CN) observed 1700 UTC 24 March 2019
Temperature: 15.0°C (59°F)
Dewpoint: 12.0°C (54°F) [RH = 82%]
Pressure (altimeter): 30.03 inches Hg (1017.0 mb)
Winds: from the N (350 degrees) at 7 MPH (6 knots; 3.1 m/s)
Visibility: 2.80 miles (4.51 km)
Ceiling: 2000 feet AGL
Clouds: scattered clouds at 600 feet AGL
overcast cloud deck at 2000 feet AGL
Weather: BR  (mist)

METAR text: ZGGG 241630Z 31004G09MPS 280V350 4500 BR SCT006 OVC020 15/12 Q1018 BECMG AT1640 1500 TSRA
Conditions at: ZGGG (GUANGZHOU/BAIYUN, CN) observed 1630 UTC 24 March 2019
Temperature: 15.0°C (59°F)
Dewpoint: 12.0°C (54°F) [RH = 82%]
Pressure (altimeter): 30.06 inches Hg (1018.0 mb)
Winds: from the NW (310 degrees) at 9 MPH (8 knots; 4.1 m/s)
gusting to 20 MPH (17 knots; 8.7 m/s)
Visibility: 2.80 miles (4.51 km)
Ceiling: 2000 feet AGL
Clouds: scattered clouds at 600 feet AGL
overcast cloud deck at 2000 feet AGL
Weather: BR  (mist)

METAR text: ZGGG 241600Z 32004MPS 290V350 4500 BR SCT005 OVC020 14/12 Q1018 BECMG AT1620 2000 TSRA
Conditions at: ZGGG (GUANGZHOU/BAIYUN, CN) observed 1600 UTC 24 March 2019
Temperature: 14.0°C (57°F)
Dewpoint: 12.0°C (54°F) [RH = 88%]
Pressure (altimeter): 30.06 inches Hg (1018.0 mb)
Winds: from the NW (320 degrees) at 9 MPH (8 knots; 4.1 m/s)
Visibility: 2.80 miles (4.51 km)
Ceiling: 2000 feet AGL
Clouds: scattered clouds at 500 feet AGL
overcast cloud deck at 2000 feet AGL
Weather: BR  (mist)

METAR text: ZGGG 241530Z 35002MPS 320V030 4500 BR SCT005 OVC020 14/12 Q1018 NOSIG
Conditions at: ZGGG (GUANGZHOU/BAIYUN, CN) observed 1530 UTC 24 March 2019
Temperature: 14.0°C (57°F)
Dewpoint: 12.0°C (54°F) [RH = 88%]
Pressure (altimeter): 30.06 inches Hg (1018.0 mb)
Winds: from the N (350 degrees) at 5 MPH (4 knots; 2.1 m/s)
Visibility: 2.80 miles (4.51 km)
Ceiling: 2000 feet AGL
Clouds: scattered clouds at 500 feet AGL
overcast cloud deck at 2000 feet AGL
Weather: BR  (mist)

METAR text: ZGGG 241500Z VRB01MPS 4500 -RA BR SCT005 OVC026 14/12 Q1017 NOSIG
Conditions at: ZGGG (GUANGZHOU/BAIYUN, CN) observed 1500 UTC 24 March 2019
Temperature: 14.0°C (57°F)
Dewpoint: 12.0°C (54°F) [RH = 88%]
Pressure (altimeter): 30.03 inches Hg (1017.0 mb)
Winds: variable direction winds at 2 MPH (2 knots; 1.0 m/s)
Visibility: 2.80 miles (4.51 km)
Ceiling: 2600 feet AGL
Clouds: scattered clouds at 500 feet AGL
overcast cloud deck at 2600 feet AGL
Weather: -RA BR  (light rain, mist)

METAR text: ZGGG 241430Z 00000MPS 4500 -RA BR SCT005 OVC026 14/12 Q1018 NOSIG
Conditions at: ZGGG (GUANGZHOU/BAIYUN, CN) observed 1430 UTC 24 March 2019
Temperature: 14.0°C (57°F)
Dewpoint: 12.0°C (54°F) [RH = 88%]
Pressure (altimeter): 30.06 inches Hg (1018.0 mb)
Winds: calm
Visibility: 2.80 miles (4.51 km)
Ceiling: 2600 feet AGL
Clouds: scattered clouds at 500 feet AGL
overcast cloud deck at 2600 feet AGL
Weather: -RA BR  (light rain, mist)

METAR text: ZGGG 241400Z 14002MPS 6000 -RA SCT005 OVC026 14/12 Q1018 NOSIG
Conditions at: ZGGG (GUANGZHOU/BAIYUN, CN) observed 1400 UTC 24 March 2019
Temperature: 14.0°C (57°F)
Dewpoint: 12.0°C (54°F) [RH = 88%]
Pressure (altimeter): 30.06 inches Hg (1018.0 mb)
Winds: from the SE (140 degrees) at 5 MPH (4 knots; 2.1 m/s)
Visibility: 4 miles ( 6 km)
Ceiling: 2600 feet AGL
Clouds: scattered clouds at 500 feet AGL
overcast cloud deck at 2600 feet AGL
Weather: -RA  (light rain)

METAR text: ZGGG 241330Z 00000MPS 8000 SCT006 OVC026 14/12 Q1018 NOSIG
Conditions at: ZGGG (GUANGZHOU/BAIYUN, CN) observed 1330 UTC 24 March 2019
Temperature: 14.0°C (57°F)
Dewpoint: 12.0°C (54°F) [RH = 88%]
Pressure (altimeter): 30.06 inches Hg (1018.0 mb)
Winds: calm
Visibility: 5 miles ( 8 km)
Ceiling: 2600 feet AGL
Clouds: scattered clouds at 600 feet AGL
overcast cloud deck at 2600 feet AGL
Weather: no significant weather observed at this time

METAR text: ZGGG 241300Z VRB01MPS 8000 SCT006 OVC026 14/12 Q1018 NOSIG
Conditions at: ZGGG (GUANGZHOU/BAIYUN, CN) observed 1300 UTC 24 March 2019
Temperature: 14.0°C (57°F)
Dewpoint: 12.0°C (54°F) [RH = 88%]
Pressure (altimeter): 30.06 inches Hg (1018.0 mb)
Winds: variable direction winds at 2 MPH (2 knots; 1.0 m/s)
Visibility: 5 miles ( 8 km)
Ceiling: 2600 feet AGL
Clouds: scattered clouds at 600 feet AGL
overcast cloud deck at 2600 feet AGL
Weather: no significant weather observed at this time

METAR text: ZGGG 241230Z VRB01MPS 8000 SCT006 OVC026 14/12 Q1018 NOSIG
Conditions at: ZGGG (GUANGZHOU/BAIYUN, CN) observed 1230 UTC 24 March 2019
Temperature: 14.0°C (57°F)
Dewpoint: 12.0°C (54°F) [RH = 88%]
Pressure (altimeter): 30.06 inches Hg (1018.0 mb)
Winds: variable direction winds at 2 MPH (2 knots; 1.0 m/s)
Visibility: 5 miles ( 8 km)
Ceiling: 2600 feet AGL
Clouds: scattered clouds at 600 feet AGL
overcast cloud deck at 2600 feet AGL
Weather: no significant weather observed at this time

METAR text: ZGGG 241200Z VRB01MPS 8000 SCT008 OVC026 14/12 Q1017 NOSIG
Conditions at: ZGGG (GUANGZHOU/BAIYUN, CN) observed 1200 UTC 24 March 2019
Temperature: 14.0°C (57°F)
Dewpoint: 12.0°C (54°F) [RH = 88%]
Pressure (altimeter): 30.03 inches Hg (1017.0 mb)
Winds: variable direction winds at 2 MPH (2 knots; 1.0 m/s)
Visibility: 5 miles ( 8 km)
Ceiling: 2600 feet AGL
Clouds: scattered clouds at 800 feet AGL
overcast cloud deck at 2600 feet AGL
Weather: no significant weather observed at this time

METAR text: ZGGG 241130Z VRB01MPS 8000 SCT008 OVC026 14/12 Q1017 NOSIG
Conditions at: ZGGG (GUANGZHOU/BAIYUN, CN) observed 1130 UTC 24 March 2019
Temperature: 14.0°C (57°F)
Dewpoint: 12.0°C (54°F) [RH = 88%]
Pressure (altimeter): 30.03 inches Hg (1017.0 mb)
Winds: variable direction winds at 2 MPH (2 knots; 1.0 m/s)
Visibility: 5 miles ( 8 km)
Ceiling: 2600 feet AGL
Clouds: scattered clouds at 800 feet AGL
overcast cloud deck at 2600 feet AGL
Weather: no significant weather observed at this time

METAR text: ZGGG 241100Z VRB01MPS 9999 SCT010 OVC026 15/12 Q1017 NOSIG
Conditions at: ZGGG (GUANGZHOU/BAIYUN, CN) observed 1100 UTC 24 March 2019
Temperature: 15.0°C (59°F)
Dewpoint: 12.0°C (54°F) [RH = 82%]
Pressure (altimeter): 30.03 inches Hg (1017.0 mb)
Winds: variable direction winds at 2 MPH (2 knots; 1.0 m/s)
Visibility: 6 or more miles (10+ km)
Ceiling: 2600 feet AGL
Clouds: scattered clouds at 1000 feet AGL
overcast cloud deck at 2600 feet AGL
Weather: no significant weather observed at this time

METAR text: ZGGG 241030Z 04002MPS 9999 SCT010 OVC026 14/12 Q1017 NOSIG
Conditions at: ZGGG (GUANGZHOU/BAIYUN, CN) observed 1030 UTC 24 March 2019
Temperature: 14.0°C (57°F)
Dewpoint: 12.0°C (54°F) [RH = 88%]
Pressure (altimeter): 30.03 inches Hg (1017.0 mb)
Winds: from the NE (40 degrees) at 5 MPH (4 knots; 2.1 m/s)
Visibility: 6 or more miles (10+ km)
Ceiling: 2600 feet AGL
Clouds: scattered clouds at 1000 feet AGL
overcast cloud deck at 2600 feet AGL
Weather: no significant weather observed at this time

METAR text: ZGGG 241000Z 06002MPS 9999 SCT010 OVC026 14/12 Q1016 NOSIG
Conditions at: ZGGG (GUANGZHOU/BAIYUN, CN) observed 1000 UTC 24 March 2019
Temperature: 14.0°C (57°F)
Dewpoint: 12.0°C (54°F) [RH = 88%]
Pressure (altimeter): 30.00 inches Hg (1016.0 mb)
Winds: from the ENE (60 degrees) at 5 MPH (4 knots; 2.1 m/s)
Visibility: 6 or more miles (10+ km)
Ceiling: 2600 feet AGL
Clouds: scattered clouds at 1000 feet AGL
overcast cloud deck at 2600 feet AGL
Weather: no significant weather observed at this time

METAR text: ZGGG 240930Z 05002MPS 020V110 9999 SCT010 OVC026 14/12 Q1016 NOSIG
Conditions at: ZGGG (GUANGZHOU/BAIYUN, CN) observed 0930 UTC 24 March 2019
Temperature: 14.0°C (57°F)
Dewpoint: 12.0°C (54°F) [RH = 88%]
Pressure (altimeter): 30.00 inches Hg (1016.0 mb)
Winds: from the NE (50 degrees) at 5 MPH (4 knots; 2.1 m/s)
Visibility: 6 or more miles (10+ km)
Ceiling: 2600 feet AGL
Clouds: scattered clouds at 1000 feet AGL
overcast cloud deck at 2600 feet AGL
Weather: no significant weather observed at this time

METAR text: ZGGG 240900Z 08002MPS 050V120 9999 SCT010 OVC026 14/11 Q1016 NOSIG
Conditions at: ZGGG (GUANGZHOU/BAIYUN, CN) observed 0900 UTC 24 March 2019
Temperature: 14.0°C (57°F)
Dewpoint: 11.0°C (52°F) [RH = 82%]
Pressure (altimeter): 30.00 inches Hg (1016.0 mb)
Winds: from the E (80 degrees) at 5 MPH (4 knots; 2.1 m/s)
Visibility: 6 or more miles (10+ km)
Ceiling: 2600 feet AGL
Clouds: scattered clouds at 1000 feet AGL
overcast cloud deck at 2600 feet AGL
Weather: no significant weather observed at this time

METAR text: ZGGG 240830Z 04003MPS 9999 SCT010 OVC026 14/12 Q1016 NOSIG
Conditions at: ZGGG (GUANGZHOU/BAIYUN, CN) observed 0830 UTC 24 March 2019
Temperature: 14.0°C (57°F)
Dewpoint: 12.0°C (54°F) [RH = 88%]
Pressure (altimeter): 30.00 inches Hg (1016.0 mb)
Winds: from the NE (40 degrees) at 7 MPH (6 knots; 3.1 m/s)
Visibility: 6 or more miles (10+ km)
Ceiling: 2600 feet AGL
Clouds: scattered clouds at 1000 feet AGL
overcast cloud deck at 2600 feet AGL
Weather: no significant weather observed at this time

METAR text: ZGGG 240800Z 07002MPS 030V100 9999 -RA SCT010 OVC023 14/12 Q1017 NOSIG
Conditions at: ZGGG (GUANGZHOU/BAIYUN, CN) observed 0800 UTC 24 March 2019
Temperature: 14.0°C (57°F)
Dewpoint: 12.0°C (54°F) [RH = 88%]
Pressure (altimeter): 30.03 inches Hg (1017.0 mb)
Winds: from the ENE (70 degrees) at 5 MPH (4 knots; 2.1 m/s)
Visibility: 6 or more miles (10+ km)
Ceiling: 2300 feet AGL
Clouds: scattered clouds at 1000 feet AGL
overcast cloud deck at 2300 feet AGL
Weather: -RA  (light rain)

METAR text: ZGGG 240730Z 04003MPS 360V070 9999 -RA SCT010 OVC023 14/12 Q1017 NOSIG
Conditions at: ZGGG (GUANGZHOU/BAIYUN, CN) observed 0730 UTC 24 March 2019
Temperature: 14.0°C (57°F)
Dewpoint: 12.0°C (54°F) [RH = 88%]
Pressure (altimeter): 30.03 inches Hg (1017.0 mb)
Winds: from the NE (40 degrees) at 7 MPH (6 knots; 3.1 m/s)
Visibility: 6 or more miles (10+ km)
Ceiling: 2300 feet AGL
Clouds: scattered clouds at 1000 feet AGL
overcast cloud deck at 2300 feet AGL
Weather: -RA  (light rain)

METAR text: ZGGG 240700Z 02002MPS 350V070 9999 -RA SCT013 OVC023 14/11 Q1017 NOSIG
Conditions at: ZGGG (GUANGZHOU/BAIYUN, CN) observed 0700 UTC 24 March 2019
Temperature: 14.0°C (57°F)
Dewpoint: 11.0°C (52°F) [RH = 82%]
Pressure (altimeter): 30.03 inches Hg (1017.0 mb)
Winds: from the NNE (20 degrees) at 5 MPH (4 knots; 2.1 m/s)
Visibility: 6 or more miles (10+ km)
Ceiling: 2300 feet AGL
Clouds: scattered clouds at 1300 feet AGL
overcast cloud deck at 2300 feet AGL
Weather: -RA  (light rain)

METAR text: ZGGG 240630Z 35003MPS 320V030 9999 -RA SCT013 OVC026 14/11 Q1017 BECMG AT0640 SHRA
Conditions at: ZGGG (GUANGZHOU/BAIYUN, CN) observed 0630 UTC 24 March 2019
Temperature: 14.0°C (57°F)
Dewpoint: 11.0°C (52°F) [RH = 82%]
Pressure (altimeter): 30.03 inches Hg (1017.0 mb)
Winds: from the N (350 degrees) at 7 MPH (6 knots; 3.1 m/s)
Visibility: 6 or more miles (10+ km)
Ceiling: 2600 feet AGL
Clouds: scattered clouds at 1300 feet AGL
overcast cloud deck at 2600 feet AGL
Weather: -RA  (light rain)

METAR text: ZGGG 240600Z 33003MPS 280V040 9999 -RA SCT013 OVC026 15/11 Q1018 BECMG AT0630 2000 SHRA
Conditions at: ZGGG (GUANGZHOU/BAIYUN, CN) observed 0600 UTC 24 March 2019
Temperature: 15.0°C (59°F)
Dewpoint: 11.0°C (52°F) [RH = 77%]
Pressure (altimeter): 30.06 inches Hg (1018.0 mb)
Winds: from the NNW (330 degrees) at 7 MPH (6 knots; 3.1 m/s)
Visibility: 6 or more miles (10+ km)
Ceiling: 2600 feet AGL
Clouds: scattered clouds at 1300 feet AGL
overcast cloud deck at 2600 feet AGL
Weather: -RA  (light rain)

METAR text: ZGGG 240530Z 02002MPS 350V080 9999 SCT013 OVC026 15/11 Q1018 BECMG AT0610 2000 SHRA
Conditions at: ZGGG (GUANGZHOU/BAIYUN, CN) observed 0530 UTC 24 March 2019
Temperature: 15.0°C (59°F)
Dewpoint: 11.0°C (52°F) [RH = 77%]
Pressure (altimeter): 30.06 inches Hg (1018.0 mb)
Winds: from the NNE (20 degrees) at 5 MPH (4 knots; 2.1 m/s)
Visibility: 6 or more miles (10+ km)
Ceiling: 2600 feet AGL
Clouds: scattered clouds at 1300 feet AGL
overcast cloud deck at 2600 feet AGL
Weather: no significant weather observed at this time

METAR text: ZGGG 240500Z 06002MPS 350V100 9999 SCT013 OVC026 15/11 Q1019 BECMG AT0600 2000 SHRA
Conditions at: ZGGG (GUANGZHOU/BAIYUN, CN) observed 0500 UTC 24 March 2019
Temperature: 15.0°C (59°F)
Dewpoint: 11.0°C (52°F) [RH = 77%]
Pressure (altimeter): 30.09 inches Hg (1019.0 mb)
Winds: from the ENE (60 degrees) at 5 MPH (4 knots; 2.1 m/s)
Visibility: 6 or more miles (10+ km)
Ceiling: 2600 feet AGL
Clouds: scattered clouds at 1300 feet AGL
overcast cloud deck at 2600 feet AGL
Weather: no significant weather observed at this time

METAR text: ZGGG 240430Z VRB01MPS 9999 SCT013 OVC026 14/11 Q1019 NOSIG
Conditions at: ZGGG (GUANGZHOU/BAIYUN, CN) observed 0430 UTC 24 March 2019
Temperature: 14.0°C (57°F)
Dewpoint: 11.0°C (52°F) [RH = 82%]
Pressure (altimeter): 30.09 inches Hg (1019.0 mb)
Winds: variable direction winds at 2 MPH (2 knots; 1.0 m/s)
Visibility: 6 or more miles (10+ km)
Ceiling: 2600 feet AGL
Clouds: scattered clouds at 1300 feet AGL
overcast cloud deck at 2600 feet AGL
Weather: no significant weather observed at this time

METAR text: ZGGG 240400Z 05003MPS 9999 FEW013 OVC026 14/11 Q1019 NOSIG
Conditions at: ZGGG (GUANGZHOU/BAIYUN, CN) observed 0400 UTC 24 March 2019
Temperature: 14.0°C (57°F)
Dewpoint: 11.0°C (52°F) [RH = 82%]
Pressure (altimeter): 30.09 inches Hg (1019.0 mb)
Winds: from the NE (50 degrees) at 7 MPH (6 knots; 3.1 m/s)
Visibility: 6 or more miles (10+ km)
Ceiling: 2600 feet AGL
Clouds: few clouds at 1300 feet AGL
overcast cloud deck at 2600 feet AGL
Weather: no significant weather observed at this time

METAR text: ZGGG 240330Z 07003MPS 040V100 9999 FEW010 OVC026 14/10 Q1020 NOSIG
Conditions at: ZGGG (GUANGZHOU/BAIYUN, CN) observed 0330 UTC 24 March 2019
Temperature: 14.0°C (57°F)
Dewpoint: 10.0°C (50°F) [RH = 77%]
Pressure (altimeter): 30.12 inches Hg (1020.0 mb)
Winds: from the ENE (70 degrees) at 7 MPH (6 knots; 3.1 m/s)
Visibility: 6 or more miles (10+ km)
Ceiling: 2600 feet AGL
Clouds: few clouds at 1000 feet AGL
overcast cloud deck at 2600 feet AGL
Weather: no significant weather observed at this time

METAR text: ZGGG 240300Z 05003MPS 9999 FEW010 OVC033 14/11 Q1020 NOSIG
Conditions at: ZGGG (GUANGZHOU/BAIYUN, CN) observed 0300 UTC 24 March 2019
Temperature: 14.0°C (57°F)
Dewpoint: 11.0°C (52°F) [RH = 82%]
Pressure (altimeter): 30.12 inches Hg (1020.0 mb)
Winds: from the NE (50 degrees) at 7 MPH (6 knots; 3.1 m/s)
Visibility: 6 or more miles (10+ km)
Ceiling: 3300 feet AGL
Clouds: few clouds at 1000 feet AGL
overcast cloud deck at 3300 feet AGL
Weather: no significant weather observed at this time

METAR text: ZGGG 240230Z 09002MPS 040V140 9999 FEW010 OVC033 13/11 Q1020 NOSIG
Conditions at: ZGGG (GUANGZHOU/BAIYUN, CN) observed 0230 UTC 24 March 2019
Temperature: 13.0°C (55°F)
Dewpoint: 11.0°C (52°F) [RH = 88%]
Pressure (altimeter): 30.12 inches Hg (1020.0 mb)
Winds: from the E (90 degrees) at 5 MPH (4 knots; 2.1 m/s)
Visibility: 6 or more miles (10+ km)
Ceiling: 3300 feet AGL
Clouds: few clouds at 1000 feet AGL
overcast cloud deck at 3300 feet AGL
Weather: no significant weather observed at this time

METAR text: ZGGG 240200Z 05003MPS 020V080 9999 FEW010 OVC033 13/11 Q1021 NOSIG
Conditions at: ZGGG (GUANGZHOU/BAIYUN, CN) observed 0200 UTC 24 March 2019
Temperature: 13.0°C (55°F)
Dewpoint: 11.0°C (52°F) [RH = 88%]
Pressure (altimeter): 30.15 inches Hg (1021.0 mb)
Winds: from the NE (50 degrees) at 7 MPH (6 knots; 3.1 m/s)
Visibility: 6 or more miles (10+ km)
Ceiling: 3300 feet AGL
Clouds: few clouds at 1000 feet AGL
overcast cloud deck at 3300 feet AGL
Weather: no significant weather observed at this time

METAR text: ZGGG 240130Z 03003MPS 9999 FEW010 OVC033 13/10 Q1021 NOSIG
Conditions at: ZGGG (GUANGZHOU/BAIYUN, CN) observed 0130 UTC 24 March 2019
Temperature: 13.0°C (55°F)
Dewpoint: 10.0°C (50°F) [RH = 82%]
Pressure (altimeter): 30.15 inches Hg (1021.0 mb)
Winds: from the NNE (30 degrees) at 7 MPH (6 knots; 3.1 m/s)
Visibility: 6 or more miles (10+ km)
Ceiling: 3300 feet AGL
Clouds: few clouds at 1000 feet AGL
overcast cloud deck at 3300 feet AGL
Weather: no significant weather observed at this time

METAR text: ZGGG 240100Z 06003MPS 030V100 9999 -RA FEW010 OVC033 13/10 Q1021 NOSIG
Conditions at: ZGGG (GUANGZHOU/BAIYUN, CN) observed 0100 UTC 24 March 2019
Temperature: 13.0°C (55°F)
Dewpoint: 10.0°C (50°F) [RH = 82%]
Pressure (altimeter): 30.15 inches Hg (1021.0 mb)
Winds: from the ENE (60 degrees) at 7 MPH (6 knots; 3.1 m/s)
Visibility: 6 or more miles (10+ km)
Ceiling: 3300 feet AGL
Clouds: few clouds at 1000 feet AGL
overcast cloud deck at 3300 feet AGL
Weather: -RA  (light rain)

METAR text: ZGGG 240030Z 03002MPS 350V060 9999 -RA FEW010 OVC033 13/10 Q1021 NOSIG
Conditions at: ZGGG (GUANGZHOU/BAIYUN, CN) observed 0030 UTC 24 March 2019
Temperature: 13.0°C (55°F)
Dewpoint: 10.0°C (50°F) [RH = 82%]
Pressure (altimeter): 30.15 inches Hg (1021.0 mb)
Winds: from the NNE (30 degrees) at 5 MPH (4 knots; 2.1 m/s)
Visibility: 6 or more miles (10+ km)
Ceiling: 3300 feet AGL
Clouds: few clouds at 1000 feet AGL
overcast cloud deck at 3300 feet AGL
Weather: -RA  (light rain)

METAR text: ZGGG 240000Z 06002MPS 9999 -RA FEW010 OVC033 13/10 Q1021 BECMG AT0015 SHRA
Conditions at: ZGGG (GUANGZHOU/BAIYUN, CN) observed 0000 UTC 24 March 2019
Temperature: 13.0°C (55°F)
Dewpoint: 10.0°C (50°F) [RH = 82%]
Pressure (altimeter): 30.15 inches Hg (1021.0 mb)
Winds: from the ENE (60 degrees) at 5 MPH (4 knots; 2.1 m/s)
Visibility: 6 or more miles (10+ km)
Ceiling: 3300 feet AGL
Clouds: few clouds at 1000 feet AGL
overcast cloud deck at 3300 feet AGL
Weather: -RA  (light rain)

METAR text: ZGGG 232330Z VRB01MPS 9999 -RA FEW010 OVC033 13/10 Q1021 BECMG AT2350 SHRA
Conditions at: ZGGG (GUANGZHOU/BAIYUN, CN) observed 2330 UTC 23 March 2019
Temperature: 13.0°C (55°F)
Dewpoint: 10.0°C (50°F) [RH = 82%]
Pressure (altimeter): 30.15 inches Hg (1021.0 mb)
Winds: variable direction winds at 2 MPH (2 knots; 1.0 m/s)
Visibility: 6 or more miles (10+ km)
Ceiling: 3300 feet AGL
Clouds: few clouds at 1000 feet AGL
overcast cloud deck at 3300 feet AGL
Weather: -RA  (light rain)

METAR text: ZGGG 232300Z 03002MPS 360V070 9999 -RA FEW010 OVC033 12/10 Q1020 BECMG AT2330 SHRA
Conditions at: ZGGG (GUANGZHOU/BAIYUN, CN) observed 2300 UTC 23 March 2019
Temperature: 12.0°C (54°F)
Dewpoint: 10.0°C (50°F) [RH = 88%]
Pressure (altimeter): 30.12 inches Hg (1020.0 mb)
Winds: from the NNE (30 degrees) at 5 MPH (4 knots; 2.1 m/s)
Visibility: 6 or more miles (10+ km)
Ceiling: 3300 feet AGL
Clouds: few clouds at 1000 feet AGL
overcast cloud deck at 3300 feet AGL
Weather: -RA  (light rain)

METAR text: ZGGG 232230Z 06002MPS 020V090 9999 -RA FEW010 OVC033 12/10 Q1020 BECMG AT2330 SHRA
Conditions at: ZGGG (GUANGZHOU/BAIYUN, CN) observed 2230 UTC 23 March 2019
Temperature: 12.0°C (54°F)
Dewpoint: 10.0°C (50°F) [RH = 88%]
Pressure (altimeter): 30.12 inches Hg (1020.0 mb)
Winds: from the ENE (60 degrees) at 5 MPH (4 knots; 2.1 m/s)
Visibility: 6 or more miles (10+ km)
Ceiling: 3300 feet AGL
Clouds: few clouds at 1000 feet AGL
overcast cloud deck at 3300 feet AGL
Weather: -RA  (light rain)

METAR text: ZGGG 232200Z 06001MPS 9999 -RA FEW010 OVC033 12/10 Q1020 NOSIG
Conditions at: ZGGG (GUANGZHOU/BAIYUN, CN) observed 2200 UTC 23 March 2019
Temperature: 12.0°C (54°F)
Dewpoint: 10.0°C (50°F) [RH = 88%]
Pressure (altimeter): 30.12 inches Hg (1020.0 mb)
Winds: from the ENE (60 degrees) at 2 MPH (2 knots; 1.0 m/s)
Visibility: 6 or more miles (10+ km)
Ceiling: 3300 feet AGL
Clouds: few clouds at 1000 feet AGL
overcast cloud deck at 3300 feet AGL
Weather: -RA  (light rain)

METAR text: ZGGG 232130Z 06002MPS 9999 -RA FEW010 OVC033 12/10 Q1020 NOSIG
Conditions at: ZGGG (GUANGZHOU/BAIYUN, CN) observed 2130 UTC 23 March 2019
Temperature: 12.0°C (54°F)
Dewpoint: 10.0°C (50°F) [RH = 88%]
Pressure (altimeter): 30.12 inches Hg (1020.0 mb)
Winds: from the ENE (60 degrees) at 5 MPH (4 knots; 2.1 m/s)
Visibility: 6 or more miles (10+ km)
Ceiling: 3300 feet AGL
Clouds: few clouds at 1000 feet AGL
overcast cloud deck at 3300 feet AGL
Weather: -RA  (light rain)

METAR text: ZGGG 232100Z 06003MPS 9999 -RA FEW010 OVC026 12/10 Q1020 NOSIG
Conditions at: ZGGG (GUANGZHOU/BAIYUN, CN) observed 2100 UTC 23 March 2019
Temperature: 12.0°C (54°F)
Dewpoint: 10.0°C (50°F) [RH = 88%]
Pressure (altimeter): 30.12 inches Hg (1020.0 mb)
Winds: from the ENE (60 degrees) at 7 MPH (6 knots; 3.1 m/s)
Visibility: 6 or more miles (10+ km)
Ceiling: 2600 feet AGL
Clouds: few clouds at 1000 feet AGL
overcast cloud deck at 2600 feet AGL
Weather: -RA  (light rain)

METAR text: ZGGG 232030Z 05003MPS 020V080 9999 FEW010 OVC026 13/10 Q1020 NOSIG
Conditions at: ZGGG (GUANGZHOU/BAIYUN, CN) observed 2030 UTC 23 March 2019
Temperature: 13.0°C (55°F)
Dewpoint: 10.0°C (50°F) [RH = 82%]
Pressure (altimeter): 30.12 inches Hg (1020.0 mb)
Winds: from the NE (50 degrees) at 7 MPH (6 knots; 3.1 m/s)
Visibility: 6 or more miles (10+ km)
Ceiling: 2600 feet AGL
Clouds: few clouds at 1000 feet AGL
overcast cloud deck at 2600 feet AGL
Weather: no significant weather observed at this time

METAR text: ZGGG 232000Z 02004MPS 9999 FEW010 OVC026 12/10 Q1020 NOSIG
Conditions at: ZGGG (GUANGZHOU/BAIYUN, CN) observed 2000 UTC 23 March 2019
Temperature: 12.0°C (54°F)
Dewpoint: 10.0°C (50°F) [RH = 88%]
Pressure (altimeter): 30.12 inches Hg (1020.0 mb)
Winds: from the NNE (20 degrees) at 9 MPH (8 knots; 4.1 m/s)
Visibility: 6 or more miles (10+ km)
Ceiling: 2600 feet AGL
Clouds: few clouds at 1000 feet AGL
overcast cloud deck at 2600 feet AGL
Weather: no significant weather observed at this time

METAR text: ZGGG 231930Z 03005MPS 9999 -RA FEW010 OVC023 12/10 Q1020 NOSIG
Conditions at: ZGGG (GUANGZHOU/BAIYUN, CN) observed 1930 UTC 23 March 2019
Temperature: 12.0°C (54°F)
Dewpoint: 10.0°C (50°F) [RH = 88%]
Pressure (altimeter): 30.12 inches Hg (1020.0 mb)
Winds: from the NNE (30 degrees) at 12 MPH (10 knots; 5.1 m/s)
Visibility: 6 or more miles (10+ km)
Ceiling: 2300 feet AGL
Clouds: few clouds at 1000 feet AGL
overcast cloud deck at 2300 feet AGL
Weather: -RA  (light rain)

METAR text: ZGGG 231900Z 02004MPS 9999 -RA FEW010 OVC023 12/10 Q1020 NOSIG
Conditions at: ZGGG (GUANGZHOU/BAIYUN, CN) observed 1900 UTC 23 March 2019
Temperature: 12.0°C (54°F)
Dewpoint: 10.0°C (50°F) [RH = 88%]
Pressure (altimeter): 30.12 inches Hg (1020.0 mb)
Winds: from the NNE (20 degrees) at 9 MPH (8 knots; 4.1 m/s)
Visibility: 6 or more miles (10+ km)
Ceiling: 2300 feet AGL
Clouds: few clouds at 1000 feet AGL
overcast cloud deck at 2300 feet AGL
Weather: -RA  (light rain)

METAR text: ZGGG 231830Z 01005MPS 9999 -RA FEW010 OVC023 12/10 Q1020 NOSIG
Conditions at: ZGGG (GUANGZHOU/BAIYUN, CN) observed 1830 UTC 23 March 2019
Temperature: 12.0°C (54°F)
Dewpoint: 10.0°C (50°F) [RH = 88%]
Pressure (altimeter): 30.12 inches Hg (1020.0 mb)
Winds: from the N (10 degrees) at 12 MPH (10 knots; 5.1 m/s)
Visibility: 6 or more miles (10+ km)
Ceiling: 2300 feet AGL
Clouds: few clouds at 1000 feet AGL
overcast cloud deck at 2300 feet AGL
Weather: -RA  (light rain)

METAR text: ZGGG 231800Z 36004MPS 9999 -RA FEW010 OVC023 13/10 Q1021 NOSIG
Conditions at: ZGGG (GUANGZHOU/BAIYUN, CN) observed 1800 UTC 23 March 2019
Temperature: 13.0°C (55°F)
Dewpoint: 10.0°C (50°F) [RH = 82%]
Pressure (altimeter): 30.15 inches Hg (1021.0 mb)
Winds: from the N (360 degrees) at 9 MPH (8 knots; 4.1 m/s)
Visibility: 6 or more miles (10+ km)
Ceiling: 2300 feet AGL
Clouds: few clouds at 1000 feet AGL
overcast cloud deck at 2300 feet AGL
Weather: -RA  (light rain)

METAR text: ZGGG 231730Z 36003MPS 310V030 9999 -RA FEW016 OVC023 13/10 Q1021 NOSIG
Conditions at: ZGGG (GUANGZHOU/BAIYUN, CN) observed 1730 UTC 23 March 2019
Temperature: 13.0°C (55°F)
Dewpoint: 10.0°C (50°F) [RH = 82%]
Pressure (altimeter): 30.15 inches Hg (1021.0 mb)
Winds: from the N (360 degrees) at 7 MPH (6 knots; 3.1 m/s)
Visibility: 6 or more miles (10+ km)
Ceiling: 2300 feet AGL
Clouds: few clouds at 1600 feet AGL
overcast cloud deck at 2300 feet AGL
Weather: -RA  (light rain)

METAR text: ZGGG 231700Z 01005MPS 9999 -RA FEW016 OVC023 13/10 Q1020 NOSIG
Conditions at: ZGGG (GUANGZHOU/BAIYUN, CN) observed 1700 UTC 23 March 2019
Temperature: 13.0°C (55°F)
Dewpoint: 10.0°C (50°F) [RH = 82%]
Pressure (altimeter): 30.12 inches Hg (1020.0 mb)
Winds: from the N (10 degrees) at 12 MPH (10 knots; 5.1 m/s)
Visibility: 6 or more miles (10+ km)
Ceiling: 2300 feet AGL
Clouds: few clouds at 1600 feet AGL
overcast cloud deck at 2300 feet AGL
Weather: -RA  (light rain)

METAR text: ZGGG 231630Z 01004MPS 9999 -RA OVC023 13/10 Q1021 NOSIG
Conditions at: ZGGG (GUANGZHOU/BAIYUN, CN) observed 1630 UTC 23 March 2019
Temperature: 13.0°C (55°F)
Dewpoint: 10.0°C (50°F) [RH = 82%]
Pressure (altimeter): 30.15 inches Hg (1021.0 mb)
Winds: from the N (10 degrees) at 9 MPH (8 knots; 4.1 m/s)
Visibility: 6 or more miles (10+ km)
Ceiling: 2300 feet AGL
Clouds: overcast cloud deck at 2300 feet AGL
Weather: -RA  (light rain)

METAR text: ZGGG 231600Z 03005MPS 9999 -RA OVC023 13/10 Q1021 NOSIG
Conditions at: ZGGG (GUANGZHOU/BAIYUN, CN) observed 1600 UTC 23 March 2019
Temperature: 13.0°C (55°F)
Dewpoint: 10.0°C (50°F) [RH = 82%]
Pressure (altimeter): 30.15 inches Hg (1021.0 mb)
Winds: from the NNE (30 degrees) at 12 MPH (10 knots; 5.1 m/s)
Visibility: 6 or more miles (10+ km)
Ceiling: 2300 feet AGL
Clouds: overcast cloud deck at 2300 feet AGL
Weather: -RA  (light rain)

METAR text: ZGGG 231530Z 03005MPS 9999 OVC023 13/10 Q1021 NOSIG
Conditions at: ZGGG (GUANGZHOU/BAIYUN, CN) observed 1530 UTC 23 March 2019
Temperature: 13.0°C (55°F)
Dewpoint: 10.0°C (50°F) [RH = 82%]
Pressure (altimeter): 30.15 inches Hg (1021.0 mb)
Winds: from the NNE (30 degrees) at 12 MPH (10 knots; 5.1 m/s)
Visibility: 6 or more miles (10+ km)
Ceiling: 2300 feet AGL
Clouds: overcast cloud deck at 2300 feet AGL
Weather: no significant weather observed at this time

METAR text: ZGGG 231500Z 02004MPS 9999 OVC023 13/10 Q1021 NOSIG
Conditions at: ZGGG (GUANGZHOU/BAIYUN, CN) observed 1500 UTC 23 March 2019
Temperature: 13.0°C (55°F)
Dewpoint: 10.0°C (50°F) [RH = 82%]
Pressure (altimeter): 30.15 inches Hg (1021.0 mb)
Winds: from the NNE (20 degrees) at 9 MPH (8 knots; 4.1 m/s)
Visibility: 6 or more miles (10+ km)
Ceiling: 2300 feet AGL
Clouds: overcast cloud deck at 2300 feet AGL
Weather: no significant weather observed at this time

METAR text: ZGGG 231430Z 03005MPS 9999 SCT015 OVC030 13/10 Q1021 NOSIG
Conditions at: ZGGG (GUANGZHOU/BAIYUN, CN) observed 1430 UTC 23 March 2019
Temperature: 13.0°C (55°F)
Dewpoint: 10.0°C (50°F) [RH = 82%]
Pressure (altimeter): 30.15 inches Hg (1021.0 mb)
Winds: from the NNE (30 degrees) at 12 MPH (10 knots; 5.1 m/s)
Visibility: 6 or more miles (10+ km)
Ceiling: 3000 feet AGL
Clouds: scattered clouds at 1500 feet AGL
overcast cloud deck at 3000 feet AGL
Weather: no significant weather observed at this time

METAR text: ZGGG 231400Z 02005MPS 9999 SCT015 OVC030 13/10 Q1021 NOSIG
Conditions at: ZGGG (GUANGZHOU/BAIYUN, CN) observed 1400 UTC 23 March 2019
Temperature: 13.0°C (55°F)
Dewpoint: 10.0°C (50°F) [RH = 82%]
Pressure (altimeter): 30.15 inches Hg (1021.0 mb)
Winds: from the NNE (20 degrees) at 12 MPH (10 knots; 5.1 m/s)
Visibility: 6 or more miles (10+ km)
Ceiling: 3000 feet AGL
Clouds: scattered clouds at 1500 feet AGL
overcast cloud deck at 3000 feet AGL
Weather: no significant weather observed at this time

METAR text: ZGGG 231330Z 01004MPS 9999 -SHRA SCT015 OVC036 13/11 Q1021 NOSIG
Conditions at: ZGGG (GUANGZHOU/BAIYUN, CN) observed 1330 UTC 23 March 2019
Temperature: 13.0°C (55°F)
Dewpoint: 11.0°C (52°F) [RH = 88%]
Pressure (altimeter): 30.15 inches Hg (1021.0 mb)
Winds: from the N (10 degrees) at 9 MPH (8 knots; 4.1 m/s)
Visibility: 6 or more miles (10+ km)
Ceiling: 3600 feet AGL
Clouds: scattered clouds at 1500 feet AGL
overcast cloud deck at 3600 feet AGL
Weather: -SHRA  (light rain showers)

METAR text: ZGGG 231300Z 04002MPS 9000 -SHRA SCT015 OVC036 13/11 Q1021 NOSIG
Conditions at: ZGGG (GUANGZHOU/BAIYUN, CN) observed 1300 UTC 23 March 2019
Temperature: 13.0°C (55°F)
Dewpoint: 11.0°C (52°F) [RH = 88%]
Pressure (altimeter): 30.15 inches Hg (1021.0 mb)
Winds: from the NE (40 degrees) at 5 MPH (4 knots; 2.1 m/s)
Visibility: 6 miles ( 9 km)
Ceiling: 3600 feet AGL
Clouds: scattered clouds at 1500 feet AGL
overcast cloud deck at 3600 feet AGL
Weather: -SHRA  (light rain showers)

METAR text: ZGGG 231230Z 04003MPS 9000 -SHRA OVC036 13/11 Q1020 NOSIG
Conditions at: ZGGG (GUANGZHOU/BAIYUN, CN) observed 1230 UTC 23 March 2019
Temperature: 13.0°C (55°F)
Dewpoint: 11.0°C (52°F) [RH = 88%]
Pressure (altimeter): 30.12 inches Hg (1020.0 mb)
Winds: from the NE (40 degrees) at 7 MPH (6 knots; 3.1 m/s)
Visibility: 6 miles ( 9 km)
Ceiling: 3600 feet AGL
Clouds: overcast cloud deck at 3600 feet AGL
Weather: -SHRA  (light rain showers)

METAR text: ZGGG 231200Z 06005MPS 020V100 9000 -SHRA OVC036 14/11 Q1020 NOSIG
Conditions at: ZGGG (GUANGZHOU/BAIYUN, CN) observed 1200 UTC 23 March 2019
Temperature: 14.0°C (57°F)
Dewpoint: 11.0°C (52°F) [RH = 82%]
Pressure (altimeter): 30.12 inches Hg (1020.0 mb)
Winds: from the ENE (60 degrees) at 12 MPH (10 knots; 5.1 m/s)
Visibility: 6 miles ( 9 km)
Ceiling: 3600 feet AGL
Clouds: overcast cloud deck at 3600 feet AGL
Weather: -SHRA  (light rain showers)

METAR text: ZGGG 231130Z 02005MPS 9000 -SHRA OVC026 14/11 Q1020 NOSIG
Conditions at: ZGGG (GUANGZHOU/BAIYUN, CN) observed 1130 UTC 23 March 2019
Temperature: 14.0°C (57°F)
Dewpoint: 11.0°C (52°F) [RH = 82%]
Pressure (altimeter): 30.12 inches Hg (1020.0 mb)
Winds: from the NNE (20 degrees) at 12 MPH (10 knots; 5.1 m/s)
Visibility: 6 miles ( 9 km)
Ceiling: 2600 feet AGL
Clouds: overcast cloud deck at 2600 feet AGL
Weather: -SHRA  (light rain showers)

METAR text: ZGGG 231100Z 36005MPS 8000 -SHRA SCT013 OVC023 14/11 Q1019 NOSIG
Conditions at: ZGGG (GUANGZHOU/BAIYUN, CN) observed 1100 UTC 23 March 2019
Temperature: 14.0°C (57°F)
Dewpoint: 11.0°C (52°F) [RH = 82%]
Pressure (altimeter): 30.09 inches Hg (1019.0 mb)
Winds: from the N (360 degrees) at 12 MPH (10 knots; 5.1 m/s)
Visibility: 5 miles ( 8 km)
Ceiling: 2300 feet AGL
Clouds: scattered clouds at 1300 feet AGL
overcast cloud deck at 2300 feet AGL
Weather: -SHRA  (light rain showers)

METAR text: ZGGG 231030Z 02005MPS 8000 -SHRA SCT013 OVC020 14/11 Q1019 NOSIG
Conditions at: ZGGG (GUANGZHOU/BAIYUN, CN) observed 1030 UTC 23 March 2019
Temperature: 14.0°C (57°F)
Dewpoint: 11.0°C (52°F) [RH = 82%]
Pressure (altimeter): 30.09 inches Hg (1019.0 mb)
Winds: from the NNE (20 degrees) at 12 MPH (10 knots; 5.1 m/s)
Visibility: 5 miles ( 8 km)
Ceiling: 2000 feet AGL
Clouds: scattered clouds at 1300 feet AGL
overcast cloud deck at 2000 feet AGL
Weather: -SHRA  (light rain showers)

Forecast for: ZGGG (GUANGZHOU/BAIYUN, CN)
Text: TAF ZGGG 242100Z 2500/2524 36004MPS 7000 -RA SCT008 BKN023 TX19/2507Z TN14/2522Z
Forecast period: 0000 UTC 25 March 2019 to 0000 UTC 26 March 2019
Forecast type: FROM: standard forecast or significant change
Winds: from the N (360 degrees) at 9 MPH (8 knots; 4.1 m/s)
Visibility: 4 miles (7 km)
Ceiling: 2300 feet AGL
Clouds: scattered clouds at 800 feet AGL
broken clouds at 2300 feet AGL
Weather: -RA  (light rain)
Text: TEMPO 2500/2504 2000 TSRA SCT006 SCT026CB BKN030
Forecast period: 0000 to 0400 UTC 25 March 2019
Forecast type: TEMPORARY: The following changes expected for less than half the time period
Visibility: 1.24 miles (2.00 km)
Ceiling: 3000 feet AGL
Clouds: scattered clouds at 600 feet AGL
scattered clouds at 2600 feet AGL
broken clouds at 3000 feet AGL
Weather: TSRA  (rain associated with thunderstorm(s))